Time;durP1;ratioP1;P1;durP2;ratioP2;P2;SDS_P1;SDS_P2;PMS_P1;PMS_P2;Temp;Humidity;BMP_temperature;BMP_pressure;BME280_temperature;BME280_humidity;BME280_pressure;Samples;Min_cycle;Max_cycle;Signal;HPM_P1;HPM_P2
2022/11/03 00:00:48;;;;;;;160.28;65.83;;;;;;;11.40;72.15;100046.22;1694927;83;21216;-77
2022/11/03 00:03:53;;;;;;;170.10;66.53;;;;;;;11.28;72.32;100047.19;1703487;84;21228;-77
2022/11/03 00:06:54;;;;;;;153.38;65.22;;;;;;;11.18;72.35;100047.98;1703509;84;21812;-77
2022/11/03 00:09:49;;;;;;;157.90;64.72;;;;;;;11.07;72.54;100047.92;1702286;84;21268;-77
2022/11/03 00:12:35;;;;;;;144.32;65.00;;;;;;;10.95;72.80;100048.88;1703386;84;21747;-77
2022/11/03 00:15:28;;;;;;;159.55;62.75;;;;;;;10.66;73.98;100051.53;1702099;83;21756;-77
2022/11/03 00:18:14;;;;;;;198.53;66.47;;;;;;;10.85;73.12;100057.02;1703314;84;21296;-77
2022/11/03 00:21:13;;;;;;;278.07;62.15;;;;;;;10.85;73.08;100061.97;1703285;84;21815;-77
2022/11/03 00:24:18;;;;;;;218.20;63.63;;;;;;;10.77;73.21;100070.23;1703995;84;21851;-77
2022/11/03 00:27:24;;;;;;;186.18;61.85;;;;;;;10.66;73.59;100065.21;1703571;84;21208;-77
2022/11/03 00:30:29;;;;;;;280.12;61.50;;;;;;;10.80;73.32;100074.51;1702218;84;21752;-76
2022/11/03 00:33:39;;;;;;;246.95;51.42;;;;;;;10.65;73.77;100081.30;1703458;84;21201;-77
2022/11/03 00:36:50;;;;;;;319.57;54.00;;;;;;;10.69;73.74;100084.00;1702263;83;21771;-77
2022/11/03 00:39:54;;;;;;;160.20;53.40;;;;;;;10.84;73.21;100081.31;1703186;84;21239;-77
2022/11/03 00:43:00;;;;;;;145.65;48.78;;;;;;;10.68;73.53;100080.91;1703448;84;21783;-77
2022/11/03 00:46:07;;;;;;;125.53;45.63;;;;;;;10.59;73.60;100081.52;1701986;84;21243;-77
2022/11/03 00:49:15;;;;;;;164.72;48.20;;;;;;;10.66;73.04;100074.78;1703188;84;21197;-77
2022/11/03 00:52:22;;;;;;;171.45;51.08;;;;;;;10.60;73.06;100080.99;1703008;84;21232;-77
2022/11/03 00:55:29;;;;;;;106.25;40.35;;;;;;;10.37;73.28;100080.45;1703458;84;21747;-77
2022/11/03 00:58:34;;;;;;;154.12;41.55;;;;;;;10.14;73.83;100077.65;1703446;84;21201;-77
2022/11/03 01:01:45;;;;;;;112.25;39.15;;;;;;;10.12;74.12;100078.88;1696642;83;21953;-77
2022/11/03 01:08:15;;;;;;;87.12;40.88;;;;;;;10.11;73.95;100075.78;1694667;84;21856;-77
2022/11/03 01:11:43;;;;;;;91.45;35.83;;;;;;;10.08;73.63;100082.98;1695474;84;21199;-77
2022/11/03 01:14:53;;;;;;;68.52;32.58;;;;;;;10.01;73.68;100079.25;1696503;84;21206;-77
2022/11/03 01:18:00;;;;;;;73.60;36.80;;;;;;;9.84;74.14;100077.13;1695450;84;21197;-77
2022/11/03 01:21:06;;;;;;;58.87;34.05;;;;;;;9.85;73.96;100081.56;1694250;84;21764;-77
2022/11/03 01:24:12;;;;;;;66.22;34.40;;;;;;;9.65;74.12;100079.24;1695509;84;21823;-77
2022/11/03 01:27:22;;;;;;;71.67;35.43;;;;;;;9.66;73.93;100085.55;1695478;84;21213;-77
2022/11/03 01:30:28;;;;;;;58.30;32.67;;;;;;;9.59;73.98;100092.73;1696465;84;21253;-77
2022/11/03 01:33:35;;;;;;;55.00;28.42;;;;;;;9.43;74.30;100084.08;1696046;84;21252;-77
2022/11/03 01:36:41;;;;;;;73.07;37.42;;;;;;;9.53;73.94;100079.79;1695676;84;21185;-77
2022/11/03 01:39:40;;;;;;;71.37;37.73;;;;;;;9.60;73.72;100083.53;1695232;84;21415;-77
2022/11/03 01:42:47;;;;;;;82.57;39.20;;;;;;;9.61;73.55;100091.55;1695691;84;21245;-77
2022/11/03 01:45:53;;;;;;;70.67;37.70;;;;;;;9.67;73.31;100103.64;1695275;84;21240;-77
2022/11/03 01:49:10;;;;;;;66.28;36.00;;;;;;;9.59;73.65;100100.92;1695476;84;21189;-77
2022/11/03 01:52:55;;;;;;;78.72;38.55;;;;;;;9.60;73.40;100099.92;1701167;84;21311;-77
2022/11/03 01:55:55;;;;;;;63.95;33.75;;;;;;;9.68;73.19;100110.80;1698683;84;21204;-76
2022/11/03 01:59:01;;;;;;;67.87;37.45;;;;;;;9.75;72.79;100120.01;1695484;84;21209;-77
2022/11/03 02:02:08;;;;;;;69.87;36.83;;;;;;;9.73;72.74;100128.87;1694035;83;21225;-77
2022/11/03 02:05:15;;;;;;;67.75;35.65;;;;;;;9.51;73.33;100130.48;1694525;84;21201;-77
2022/11/03 02:08:39;;;;;;;76.00;35.35;;;;;;;9.45;73.25;100129.27;1673046;84;21317;-77
2022/11/03 02:15:02;;;;;;;68.52;36.70;;;;;;;9.17;73.44;100145.69;1664545;85;21270;-77
2022/11/03 02:18:09;;;;;;;108.03;36.50;;;;;;;9.12;73.54;100144.83;1663463;86;21243;-77
2022/11/03 02:21:38;;;;;;;118.25;36.73;;;;;;;9.21;72.81;100136.14;1646470;86;21251;-76
2022/11/03 02:25:01;;;;;;;122.70;36.23;;;;;;;9.23;72.72;100136.84;1666436;84;21275;-77
2022/11/03 02:28:06;;;;;;;148.68;34.65;;;;;;;9.23;72.38;100145.54;1686498;85;21584;-77
2022/11/03 02:31:31;;;;;;;145.47;34.95;;;;;;;9.16;72.24;100141.26;1667524;85;21209;-76
2022/11/03 02:34:43;;;;;;;161.97;33.20;;;;;;;8.98;72.54;100139.21;1667679;86;21237;-77
2022/11/03 02:37:54;;;;;;;68.87;31.00;;;;;;;8.79;72.93;100137.16;1673341;85;21779;-77
2022/11/03 02:40:56;;;;;;;49.38;28.80;;;;;;;8.78;72.90;100142.78;1684124;85;21177;-77
2022/11/03 02:44:02;;;;;;;84.40;34.92;;;;;;;8.73;73.02;100146.02;1701242;84;21776;-77
2022/11/03 02:47:12;;;;;;;64.75;33.35;;;;;;;8.65;73.17;100146.84;1706275;84;21236;-77
2022/11/03 02:50:20;;;;;;;58.45;33.48;;;;;;;8.60;73.33;100151.10;1683518;85;21185;-76
2022/11/03 02:53:26;;;;;;;51.73;28.17;;;;;;;8.37;73.64;100154.96;1683328;85;21204;-77
2022/11/03 02:56:32;;;;;;;55.90;31.05;;;;;;;8.59;73.05;100156.22;1666152;85;21771;-76
2022/11/03 02:59:49;;;;;;;56.23;34.10;;;;;;;8.59;72.87;100154.86;1683270;85;21803;-77
2022/11/03 03:03:03;;;;;;;66.00;35.55;;;;;;;8.52;72.95;100163.38;1684105;83;21260;-77
2022/11/03 03:06:13;;;;;;;64.20;34.27;;;;;;;8.39;73.33;100160.61;1683472;85;21184;-80
2022/11/03 03:09:25;;;;;;;61.68;34.40;;;;;;;8.36;73.46;100158.20;1698927;84;21240;-78
2022/11/03 03:12:31;;;;;;;56.53;34.13;;;;;;;8.39;73.41;100164.69;1705321;84;21749;-79
2022/11/03 03:16:13;;;;;;;55.15;31.97;;;;;;;8.48;72.91;100160.64;1675382;85;21848;-79
2022/11/03 03:19:39;;;;;;;61.60;33.50;;;;;;;8.30;73.25;100165.66;1683365;85;21274;-78
2022/11/03 03:22:55;;;;;;;60.33;34.58;;;;;;;8.22;73.37;100164.77;1684682;84;21224;-80
2022/11/03 03:26:14;;;;;;;73.55;37.10;;;;;;;8.48;72.44;100171.54;1685847;84;22143;-80
2022/11/03 03:29:28;;;;;;;69.80;34.05;;;;;;;8.34;72.30;100172.99;1683896;85;21768;-80
2022/11/03 03:32:36;;;;;;;63.85;34.83;;;;;;;8.06;72.96;100173.22;1682943;85;21276;-79
2022/11/03 03:35:43;;;;;;;75.55;38.92;;;;;;;8.03;73.07;100172.69;1683787;85;21359;-80
2022/11/03 03:38:51;;;;;;;73.55;39.27;;;;;;;8.01;72.83;100174.22;1683714;85;21185;-77
2022/11/03 03:41:58;;;;;;;81.08;39.73;;;;;;;8.14;72.55;100184.16;1683588;85;21216;-78
2022/11/03 03:45:03;;;;;;;74.15;38.98;;;;;;;8.13;72.32;100185.16;1683466;85;21193;-77
2022/11/03 03:48:08;;;;;;;77.05;40.23;;;;;;;8.08;72.40;100185.30;1683190;85;21275;-77
2022/11/03 03:51:08;;;;;;;77.27;39.80;;;;;;;8.03;72.48;100176.27;1683302;85;21208;-78
2022/11/03 03:54:13;;;;;;;76.17;38.25;;;;;;;8.10;72.44;100171.03;1682254;85;21221;-78
2022/11/03 03:57:22;;;;;;;70.50;37.65;;;;;;;8.17;72.42;100172.06;1700638;84;21192;-78
2022/11/03 04:00:28;;;;;;;85.00;41.05;;;;;;;8.32;72.03;100170.92;1677086;85;21256;-77
2022/11/03 04:03:34;;;;;;;97.88;46.25;;;;;;;8.07;72.68;100168.11;1683983;83;21287;-77
2022/11/03 04:06:41;;;;;;;106.75;47.48;;;;;;;8.24;72.62;100176.37;1680718;85;21260;-78
2022/11/03 04:09:47;;;;;;;87.70;42.33;;;;;;;8.32;72.40;100180.47;1682544;85;21240;-78
2022/11/03 04:23:03;;;;;;;91.20;46.30;;;;;;;8.42;71.76;100198.44;1679836;85;21237;-78
2022/11/03 04:26:09;;;;;;;99.80;48.40;;;;;;;8.41;71.90;100204.89;1687827;85;21200;-77
2022/11/03 04:29:16;;;;;;;101.42;50.80;;;;;;;8.65;71.43;100205.98;1647022;85;21256;-78
2022/11/03 04:32:23;;;;;;;101.70;47.62;;;;;;;8.75;71.11;100207.20;1687501;85;21293;-78
2022/11/03 04:35:34;;;;;;;112.35;51.63;;;;;;;8.59;71.56;100208.02;1680707;85;21894;-77
2022/11/03 04:38:39;;;;;;;93.22;48.80;;;;;;;8.78;71.17;100206.36;1687805;85;21248;-78
2022/11/03 04:41:44;;;;;;;90.38;44.48;;;;;;;8.98;70.51;100214.23;1681330;85;21205;-78
2022/11/03 04:44:51;;;;;;;88.12;42.60;;;;;;;8.94;70.64;100212.38;1686440;84;21243;-78
2022/11/03 04:47:56;;;;;;;89.97;44.85;;;;;;;8.83;70.86;100218.12;1677956;85;21245;-77
2022/11/03 04:51:05;;;;;;;95.45;44.13;;;;;;;8.96;70.76;100216.63;1683335;85;21256;-79
2022/11/03 04:54:14;;;;;;;78.22;42.45;;;;;;;9.06;70.29;100219.20;1680461;85;21871;-78
2022/11/03 04:57:22;;;;;;;82.65;40.63;;;;;;;9.13;69.89;100224.34;1683434;85;21213;-78
2022/11/03 05:00:27;;;;;;;88.15;37.75;;;;;;;9.13;69.71;100227.06;1681275;85;21232;-78
2022/11/03 05:03:40;;;;;;;70.90;38.40;;;;;;;8.73;70.42;100232.43;1693427;84;21221;-79
2022/11/03 05:06:47;;;;;;;76.02;38.30;;;;;;;8.85;69.83;100232.47;1698494;84;21220;-77
2022/11/03 05:09:53;;;;;;;66.15;35.03;;;;;;;8.93;69.53;100237.41;1700739;84;21236;-77
2022/11/03 05:13:00;;;;;;;71.00;35.43;;;;;;;9.01;68.92;100241.19;1700964;84;21189;-77
2022/11/03 05:16:11;;;;;;;62.35;30.90;;;;;;;9.13;68.42;100249.41;1701256;84;21181;-77
2022/11/03 05:19:22;;;;;;;66.60;34.70;;;;;;;9.10;68.38;100257.41;1700894;84;21780;-77
2022/11/03 05:22:28;;;;;;;;;;;;;;;9.10;68.11;100264.73;1703232;84;21935;-77
2022/11/03 05:25:47;;;;;;;73.12;36.77;;;;;;;9.16;67.87;100274.97;1700730;84;20204;-77
2022/11/03 05:29:03;;;;;;;72.58;36.65;;;;;;;9.12;68.03;100277.17;1700623;84;21213;-77
2022/11/03 05:32:09;;;;;;;65.62;34.70;;;;;;;9.52;66.96;100286.97;1699500;84;21796;-78
2022/11/03 05:35:27;;;;;;;65.17;33.80;;;;;;;9.47;66.88;100292.42;1699521;84;21344;-78
2022/11/03 05:38:33;;;;;;;75.92;38.60;;;;;;;9.54;66.76;100295.83;1699848;84;21339;-78
2022/11/03 05:41:39;;;;;;;79.90;39.88;;;;;;;9.56;66.86;100296.53;1664014;84;21205;-78
2022/11/03 05:44:47;;;;;;;79.35;40.17;;;;;;;9.55;66.65;100298.89;1663095;85;21300;-77
2022/11/03 05:47:53;;;;;;;87.12;39.88;;;;;;;9.51;66.74;100288.84;1688949;85;21228;-78
2022/11/03 05:50:59;;;;;;;74.10;40.25;;;;;;;9.62;66.66;100290.38;1688983;85;21723;-78
2022/11/03 05:54:05;;;;;;;75.32;38.30;;;;;;;9.71;66.67;100301.13;1692855;84;21270;-77
2022/11/03 05:57:20;;;;;;;72.85;37.45;;;;;;;9.91;66.20;100303.50;1703208;84;21171;-78
2022/11/03 06:00:35;;;;;;;82.72;38.83;;;;;;;10.09;65.62;100314.25;1702039;84;21222;-78
2022/11/03 06:03:42;;;;;;;70.05;36.90;;;;;;;10.43;64.71;100303.09;1702106;84;22443;-78
2022/11/03 06:06:48;;;;;;;71.40;36.05;;;;;;;10.49;64.47;100306.48;1700731;84;21242;-78
2022/11/03 06:09:55;;;;;;;75.42;35.55;;;;;;;10.44;64.45;100305.67;1701387;84;21742;-78
2022/11/03 06:13:04;;;;;;;73.17;35.28;;;;;;;10.78;63.82;100300.93;1701860;84;21570;-77
2022/11/03 06:16:40;;;;;;;73.52;34.67;;;;;;;10.66;64.34;100299.08;1686583;83;21197;-77
2022/11/03 06:19:49;;;;;;;68.15;33.42;;;;;;;10.71;63.92;100302.14;1658751;85;21792;-78
2022/11/03 06:22:56;;;;;;;66.33;34.25;;;;;;;10.65;63.66;100303.70;1689955;83;21236;-80
2022/11/03 06:26:02;;;;;;;69.60;34.45;;;;;;;10.76;63.17;100312.03;1695317;83;21227;-80
2022/11/03 06:29:07;;;;;;;63.83;33.42;;;;;;;11.36;61.58;100310.52;1687640;83;21201;-80
2022/11/03 06:32:16;;;;;;;62.60;31.77;;;;;;;11.53;60.93;100302.53;1689958;83;21211;-80
2022/11/03 06:35:22;;;;;;;51.55;27.55;;;;;;;11.31;61.31;100297.38;1639972;83;657189;-78
2022/11/03 06:38:33;;;;;;;67.42;30.52;;;;;;;11.00;62.25;100302.84;1597905;89;21244;-78
2022/11/03 06:41:40;;;;;;;56.42;28.35;;;;;;;10.88;62.49;100307.03;1591347;89;21241;-80
2022/11/03 06:44:46;;;;;;;53.08;30.27;;;;;;;11.30;61.75;100309.36;1593870;88;21271;-78
2022/11/03 06:47:53;;;;;;;60.00;29.80;;;;;;;11.15;61.94;100309.77;1605575;88;21257;-78
2022/11/03 06:50:59;;;;;;;56.10;29.92;;;;;;;11.24;61.93;100296.38;1598235;88;21217;-77
2022/11/03 06:54:08;;;;;;;59.05;29.98;;;;;;;11.45;61.34;100293.84;1596606;89;21264;-78
2022/11/03 06:57:19;;;;;;;55.38;29.85;;;;;;;11.47;61.04;100293.12;1595863;88;21249;-78
2022/11/03 07:00:34;;;;;;;53.30;27.75;;;;;;;11.46;60.79;100286.48;1598330;88;21596;-78
2022/11/03 07:03:41;;;;;;;58.68;30.57;;;;;;;11.71;59.71;100299.45;1596505;88;21263;-78
2022/11/03 07:06:49;;;;;;;55.65;30.88;;;;;;;11.86;59.29;100306.41;1599748;88;21372;-78
2022/11/03 07:09:56;;;;;;;51.70;31.90;;;;;;;12.10;58.69;100314.92;1571496;89;21265;-78
2022/11/03 07:13:01;;;;;;;61.48;33.33;;;;;;;11.94;58.76;100320.87;1581055;89;21684;-78
2022/11/03 07:16:09;;;;;;;52.30;29.70;;;;;;;12.08;58.32;100321.09;1570078;89;21273;-79
2022/11/03 07:19:45;;;;;;;61.77;29.70;;;;;;;12.16;58.06;100319.13;1578206;89;21527;-77
2022/11/03 07:22:51;;;;;;;53.15;28.10;;;;;;;12.15;57.95;100324.29;1576279;89;21225;-79
2022/11/03 07:26:07;;;;;;;59.58;30.62;;;;;;;12.35;57.36;100317.73;1576484;89;21280;-79
2022/11/03 07:29:15;;;;;;;50.75;26.87;;;;;;;12.50;57.01;100313.62;1559824;89;21218;-79
2022/11/03 07:32:27;;;;;;;56.88;28.52;;;;;;;12.83;56.16;100308.59;1570919;91;21312;-78
2022/11/03 07:35:46;;;;;;;;;;;;;;;13.06;55.57;100318.08;1581970;89;21851;-78
2022/11/03 07:38:55;;;;;;;46.42;24.67;;;;;;;13.04;55.39;100312.80;1577455;89;20226;-78
2022/11/03 07:42:01;;;;;;;49.53;26.55;;;;;;;13.06;55.46;100324.95;1574667;89;21228;-78
2022/11/03 07:45:06;;;;;;;58.33;28.17;;;;;;;13.08;55.31;100328.86;1574721;89;21248;-77
2022/11/03 07:48:32;;;;;;;50.95;28.42;;;;;;;13.13;54.97;100335.51;1581223;89;21225;-78
2022/11/03 07:51:34;;;;;;;49.95;27.07;;;;;;;13.01;55.10;100341.15;1575487;89;21228;-78
2022/11/03 07:54:40;;;;;;;51.63;27.17;;;;;;;13.18;55.14;100336.30;1574698;89;21532;-80
2022/11/03 07:57:46;;;;;;;45.95;25.68;;;;;;;13.50;54.19;100344.11;1576547;89;21899;-78
2022/11/03 08:00:54;;;;;;;48.23;24.98;;;;;;;13.52;54.03;100330.17;1568328;89;21252;-78
2022/11/03 08:04:01;;;;;;;48.05;24.12;;;;;;;13.54;53.83;100314.33;1580554;89;21797;-80
2022/11/03 08:07:06;;;;;;;55.67;26.75;;;;;;;13.62;53.28;100315.58;1575260;89;21296;-80
2022/11/03 08:10:12;;;;;;;52.62;28.90;;;;;;;13.73;53.07;100316.94;1599984;87;21816;-78
2022/11/03 08:13:20;;;;;;;51.73;28.62;;;;;;;13.69;53.12;100318.37;1600762;88;22294;-79
2022/11/03 08:16:26;;;;;;;53.83;27.50;;;;;;;13.64;53.15;100324.99;1596971;88;21265;-79
2022/11/03 08:19:32;;;;;;;48.08;27.00;;;;;;;13.61;53.01;100317.16;1604946;88;21929;-79
2022/11/03 08:22:37;;;;;;;47.55;28.23;;;;;;;13.57;53.21;100318.59;1603975;88;21217;-79
2022/11/03 08:25:45;;;;;;;52.73;27.85;;;;;;;13.44;53.34;100316.02;1599980;88;21225;-78
2022/11/03 08:28:51;;;;;;;55.73;26.25;;;;;;;13.73;52.54;100323.81;1599579;88;21245;-80
2022/11/03 08:31:57;;;;;;;47.85;26.15;;;;;;;13.47;52.80;100324.41;1606264;88;21351;-79
2022/11/03 08:35:03;;;;;;;54.18;26.77;;;;;;;13.66;52.18;100318.27;1599766;88;21220;-80
2022/11/03 08:38:08;;;;;;;49.05;27.25;;;;;;;13.61;52.47;100313.03;1604388;88;21209;-80
2022/11/03 08:41:13;;;;;;;44.73;25.17;;;;;;;13.88;51.88;100323.25;1601942;88;21246;-80
2022/11/03 08:44:19;;;;;;;50.45;25.17;;;;;;;13.76;52.01;100320.69;1601653;88;21204;-80
2022/11/03 08:47:26;;;;;;;47.48;23.25;;;;;;;14.15;51.48;100312.45;1603443;88;21239;-80
2022/11/03 08:50:34;;;;;;;40.73;21.60;;;;;;;14.41;50.95;100310.44;1602888;88;21313;-79
2022/11/03 08:53:41;;;;;;;34.05;21.65;;;;;;;14.66;50.25;100307.55;1601517;88;21216;-80
2022/11/03 08:56:48;;;;;;;40.08;21.70;;;;;;;14.51;50.09;100302.17;1597230;88;21232;-78
2022/11/03 08:59:55;;;;;;;38.78;22.15;;;;;;;14.41;50.29;100302.18;1602206;88;21261;-79
2022/11/03 09:03:00;;;;;;;39.95;20.05;;;;;;;14.59;50.26;100298.94;1602457;88;21216;-77
2022/11/03 09:06:06;;;;;;;39.18;20.40;;;;;;;14.74;49.68;100307.92;1605717;88;21244;-77
2022/11/03 09:09:13;;;;;;;32.33;17.55;;;;;;;15.00;49.54;100309.94;1603850;88;21246;-79
2022/11/03 09:12:21;;;;;;;33.70;17.62;;;;;;;14.96;49.58;100309.52;1597309;88;21219;-78
2022/11/03 09:15:28;;;;;;;34.15;17.40;;;;;;;14.96;49.46;100304.02;1598940;88;21333;-77
2022/11/03 09:18:34;;;;;;;28.07;14.25;;;;;;;15.17;49.04;100293.91;1597881;88;21235;-77
2022/11/03 09:21:42;;;;;;;39.90;17.70;;;;;;;15.27;48.45;100295.73;1591200;88;21321;-76
2022/11/03 09:24:49;;;;;;;31.80;16.35;;;;;;;14.83;48.93;100297.91;1581412;90;21283;-77
2022/11/03 09:27:55;;;;;;;37.40;16.85;;;;;;;15.37;48.19;100298.94;1590120;89;21249;-79
2022/11/03 09:31:02;;;;;;;37.55;17.98;;;;;;;15.53;48.17;100305.47;1597374;88;21201;-79
2022/11/03 09:34:08;;;;;;;34.13;15.85;;;;;;;15.62;48.64;100306.13;1597772;88;21214;-79
2022/11/03 09:37:15;;;;;;;36.10;16.82;;;;;;;15.60;48.17;100296.66;1605402;88;21355;-79
2022/11/03 09:40:24;;;;;;;42.48;18.23;;;;;;;15.62;47.79;100283.19;1608037;88;21239;-78
2022/11/03 09:43:29;;;;;;;44.93;18.95;;;;;;;15.44;47.85;100290.18;1604279;87;21237;-78
2022/11/03 09:46:29;;;;;;;40.43;17.57;;;;;;;15.67;47.46;100289.83;1599936;87;21285;-78
2022/11/03 09:49:22;;;;;;;29.37;14.05;;;;;;;15.71;47.09;100291.61;1608530;88;21266;-77
2022/11/03 09:52:10;;;;;;;23.55;12.65;;;;;;;15.38;47.18;100299.25;1595090;88;21237;-77
2022/11/03 09:55:03;;;;;;;29.42;14.98;;;;;;;15.35;46.60;100296.94;1582018;88;21218;-77
2022/11/03 09:57:52;;;;;;;31.75;15.48;;;;;;;15.23;46.97;100297.20;1603296;88;21281;-80
2022/11/03 10:00:49;;;;;;;40.90;17.65;;;;;;;14.66;48.17;100291.02;1599886;88;21882;-78
2022/11/03 10:03:43;;;;;;;29.60;15.48;;;;;;;14.68;48.07;100285.31;1600075;88;21230;-78
2022/11/03 10:06:49;;;;;;;28.02;14.80;;;;;;;14.83;47.91;100280.53;1604514;88;21247;-78
2022/11/03 10:09:58;;;;;;;28.73;14.50;;;;;;;15.08;47.38;100285.81;1605699;88;22525;-77
2022/11/03 10:13:07;;;;;;;31.48;14.07;;;;;;;15.42;47.08;100286.77;1550384;90;21380;-78
2022/11/03 10:16:16;;;;;;;29.82;15.05;;;;;;;15.47;46.60;100284.76;1548394;90;21257;-78
2022/11/03 10:19:22;;;;;;;;;;;;;;;15.39;47.10;100272.57;1600835;88;21277;-78
2022/11/03 10:22:22;;;;;;;30.80;14.50;;;;;;;15.49;47.18;100282.13;1609316;88;20214;-78
2022/11/03 10:25:39;;;;;;;33.15;15.63;;;;;;;15.78;45.67;100282.30;1607751;88;21244;-79
2022/11/03 10:28:46;;;;;;;29.20;11.97;;;;;;;15.53;45.91;100282.03;1601166;87;21209;-78
2022/11/03 10:31:53;;;;;;;18.37;10.05;;;;;;;15.68;45.49;100280.49;1603938;87;21233;-78
2022/11/03 10:35:01;;;;;;;22.25;10.23;;;;;;;15.37;45.88;100283.78;1603755;87;21221;-77
2022/11/03 10:38:35;;;;;;;38.23;14.20;;;;;;;14.81;46.96;100288.13;1605569;87;21240;-78
2022/11/03 10:41:40;;;;;;;23.73;10.70;;;;;;;15.45;45.78;100277.24;1598523;88;21248;-77
2022/11/03 10:44:47;;;;;;;20.35;8.73;;;;;;;15.12;46.03;100270.27;1604341;87;21260;-79
2022/11/03 10:48:08;;;;;;;20.60;9.40;;;;;;;15.04;46.10;100269.38;1606792;87;21221;-79
2022/11/03 10:51:19;;;;;;;23.60;11.00;;;;;;;14.94;46.69;100250.17;1611089;88;21205;-78
2022/11/03 10:54:24;;;;;;;;;;;;;;;14.95;46.66;100227.92;1599676;87;21285;-78
2022/11/03 10:57:30;;;;;;;20.12;10.38;;;;;;;15.17;46.36;100202.46;1591681;87;20248;-77
2022/11/03 11:00:37;;;;;;;36.40;11.48;;;;;;;15.33;46.17;100206.72;1602530;88;22172;-77
2022/11/03 11:03:48;;;;;;;19.02;9.73;;;;;;;15.21;46.43;100227.70;1608062;88;21224;-76
2022/11/03 11:06:55;;;;;;;25.77;9.98;;;;;;;15.26;46.59;100221.88;1582654;88;21823;-77
2022/11/03 11:10:00;;;;;;;26.75;10.93;;;;;;;15.17;46.50;100218.14;1597893;89;21999;-77
2022/11/03 11:13:26;;;;;;;20.95;9.93;;;;;;;15.00;46.98;100213.00;1598147;88;21248;-77
2022/11/03 11:17:00;;;;;;;20.32;9.25;;;;;;;15.33;46.83;100213.60;1598603;89;21225;-77
2022/11/03 11:20:37;;;;;;;30.65;10.25;;;;;;;15.59;46.10;100210.89;1601148;88;21231;-79
2022/11/03 11:23:48;;;;;;;22.98;10.80;;;;;;;15.63;46.16;100206.34;1597540;88;21362;-77
2022/11/03 11:26:55;;;;;;;20.75;9.98;;;;;;;15.51;46.96;100193.17;1601977;88;22318;-77
2022/11/03 11:30:03;;;;;;;21.80;10.03;;;;;;;15.74;46.97;100200.20;1600814;88;21276;-78
2022/11/03 11:33:24;;;;;;;22.05;10.15;;;;;;;15.54;47.22;100198.80;1595976;88;21232;-77
2022/11/03 11:36:33;;;;;;;18.85;9.58;;;;;;;16.18;46.03;100193.14;1605220;88;21236;-77
2022/11/03 11:39:44;;;;;;;20.97;9.53;;;;;;;16.31;45.56;100195.33;1573121;89;21222;-77
2022/11/03 11:43:14;;;;;;;26.35;9.63;;;;;;;16.20;45.74;100190.49;1582901;90;21208;-78
2022/11/03 11:46:47;;;;;;;28.23;9.40;;;;;;;16.28;46.04;100190.80;1591614;88;21188;-77
2022/11/03 11:49:52;;;;;;;20.62;9.85;;;;;;;16.35;45.85;100184.72;1615071;87;21260;-77
2022/11/03 11:53:14;;;;;;;27.05;10.88;;;;;;;16.42;45.54;100186.94;1628225;87;22113;-78
2022/11/03 11:56:21;;;;;;;24.95;11.22;;;;;;;16.20;46.19;100186.89;1626778;87;21334;-77
2022/11/03 11:59:30;;;;;;;23.07;10.15;;;;;;;16.13;46.57;100197.08;1633147;87;21224;-77
2022/11/03 12:02:41;;;;;;;21.33;10.23;;;;;;;16.26;46.81;100192.91;1615151;87;21237;-77
2022/11/03 12:05:47;;;;;;;23.62;9.48;;;;;;;16.40;46.37;100197.33;1620689;87;21803;-77
2022/11/03 12:08:53;;;;;;;24.05;9.88;;;;;;;16.27;46.81;100195.98;1609695;87;21260;-77
2022/11/03 12:12:01;;;;;;;21.48;9.55;;;;;;;16.41;46.45;100189.36;1637421;87;21772;-77
2022/11/03 12:14:54;;;;;;;22.77;9.43;;;;;;;16.32;46.33;100191.50;1621845;87;21783;-77
2022/11/03 12:18:01;;;;;;;19.73;8.73;;;;;;;16.23;46.54;100195.59;1631858;87;21223;-77
2022/11/03 12:21:13;;;;;;;18.82;8.95;;;;;;;16.28;46.27;100193.56;1637570;87;21236;-77
2022/11/03 12:24:35;;;;;;;18.57;8.75;;;;;;;16.36;45.95;100187.78;1630339;87;21291;-80
2022/11/03 12:27:45;;;;;;;17.55;8.25;;;;;;;16.59;45.72;100192.27;1624580;87;21236;-77
2022/11/03 12:30:53;;;;;;;14.65;7.90;;;;;;;16.66;45.62;100185.36;1621345;87;21212;-77
2022/11/03 12:33:59;;;;;;;19.87;8.15;;;;;;;16.67;45.50;100189.80;1637591;86;21246;-79
2022/11/03 12:37:05;;;;;;;22.37;8.90;;;;;;;16.61;45.64;100195.67;1640380;86;21234;-79
2022/11/03 12:40:12;;;;;;;18.70;6.87;;;;;;;16.26;46.40;100190.16;1640830;85;21248;-79
2022/11/03 12:43:19;;;;;;;23.85;7.78;;;;;;;16.42;46.00;100189.70;1646286;85;21271;-78
2022/11/03 12:46:26;;;;;;;15.63;7.35;;;;;;;16.36;46.01;100183.11;1616624;87;21223;-78
2022/11/03 12:49:33;;;;;;;18.20;8.33;;;;;;;16.30;46.00;100184.52;1610978;87;21775;-78
2022/11/03 12:52:38;;;;;;;16.90;8.35;;;;;;;15.65;46.72;100188.54;1620579;85;21204;-78
2022/11/03 12:55:45;;;;;;;18.55;7.58;;;;;;;16.39;46.07;100183.22;1639159;85;21268;-78
2022/11/03 12:58:50;;;;;;;14.03;8.03;;;;;;;16.31;45.61;100190.34;1655177;85;21211;-78
2022/11/03 13:01:56;;;;;;;12.93;7.62;;;;;;;15.46;47.59;100183.31;1644443;86;21264;-78
2022/11/03 13:05:02;;;;;;;17.25;7.95;;;;;;;15.32;48.00;100190.71;1647718;87;21819;-77
2022/11/03 13:08:07;;;;;;;20.43;8.23;;;;;;;15.44;47.89;100186.81;1645327;85;21197;-77
2022/11/03 13:14:37;;;;;;;17.32;8.28;;;;;;;15.10;48.70;100185.05;1639883;85;21212;-77
2022/11/03 13:17:45;;;;;;;16.93;8.38;;;;;;;15.13;48.88;100185.18;1639755;85;21204;-77
2022/11/03 13:20:53;;;;;;;16.02;8.60;;;;;;;15.16;48.87;100182.02;1646157;85;21220;-78
2022/11/03 13:23:59;;;;;;;18.70;7.97;;;;;;;14.69;49.97;100179.14;1646221;87;21251;-77
2022/11/03 13:27:05;;;;;;;16.45;7.62;;;;;;;14.86;49.78;100182.35;1643249;86;21284;-77
2022/11/03 13:30:13;;;;;;;17.37;7.75;;;;;;;15.21;48.90;100182.23;1647710;85;21241;-77
2022/11/03 13:33:18;;;;;;;23.52;8.65;;;;;;;14.95;49.27;100178.35;1640311;85;21288;-77
2022/11/03 13:36:24;;;;;;;19.20;7.87;;;;;;;14.74;50.02;100182.65;1662145;86;21261;-77
2022/11/03 13:39:30;;;;;;;14.40;7.12;;;;;;;14.81;49.96;100189.01;1648947;85;21220;-77
2022/11/03 13:42:36;;;;;;;19.80;7.47;;;;;;;14.79;50.09;100181.50;1638965;85;21192;-77
2022/11/03 16:33:37;;;;;;;29.90;15.85;;;;;;;9.69;85.04;100142.53;1869459;76;28058;-80
2022/11/03 16:36:44;;;;;;;31.10;15.93;;;;;;;9.66;84.74;100144.27;1846099;77;21168;-80
2022/11/03 16:39:49;;;;;;;30.17;15.15;;;;;;;9.76;84.23;100140.83;1846073;77;21180;-80
2022/11/03 16:42:55;;;;;;;24.80;13.25;;;;;;;9.61;84.41;100133.02;1844413;77;21184;-81
2022/11/03 16:46:01;;;;;;;19.73;11.18;;;;;;;9.48;85.10;100118.02;1845931;77;21762;-80
2022/11/03 16:49:06;;;;;;;19.20;10.45;;;;;;;9.51;84.73;100124.17;1812861;77;21222;-80
2022/11/03 16:52:12;;;;;;;22.30;10.70;;;;;;;9.60;84.90;100123.98;1812299;79;21717;-80
2022/11/03 16:55:19;;;;;;;19.45;11.78;;;;;;;9.66;84.11;100125.16;1813289;79;21218;-80
2022/11/03 16:58:25;;;;;;;38.50;17.90;;;;;;;9.65;84.05;100139.33;1813332;79;21155;-80
2022/11/03 17:01:30;;;;;;;36.68;19.73;;;;;;;9.78;83.84;100136.02;1811623;79;21254;-80
2022/11/03 17:04:36;;;;;;;37.35;18.95;;;;;;;9.81;83.39;100136.20;1811719;79;21188;-80
2022/11/03 17:07:42;;;;;;;49.55;22.58;;;;;;;9.75;83.70;100126.84;1813302;79;21225;-80
2022/11/03 17:10:50;;;;;;;46.28;25.25;;;;;;;9.81;83.74;100126.64;1812234;79;21176;-80
2022/11/03 17:13:56;;;;;;;50.58;27.13;;;;;;;9.82;83.34;100131.07;1813318;79;21204;-80
2022/11/03 17:17:03;;;;;;;51.42;24.32;;;;;;;9.61;84.23;100122.09;1813066;79;21209;-80
2022/11/03 17:20:09;;;;;;;45.78;23.83;;;;;;;9.72;83.88;100113.52;1813489;79;21262;-80
2022/11/03 17:23:15;;;;;;;45.17;25.60;;;;;;;9.64;83.91;100117.63;1799546;79;21216;-80
2022/11/03 17:26:22;;;;;;;55.83;26.57;;;;;;;9.72;83.45;100113.52;1771542;81;21193;-80
2022/11/03 17:29:42;;;;;;;69.35;35.28;;;;;;;9.81;83.12;100122.03;1771489;81;21236;-80